createdAt,value
2022-12-04T00:00:40.921Z,82.57
2022-12-04T00:03:09.303Z,83.06
2022-12-04T00:05:38.816Z,82.74
2022-12-04T00:08:07.060Z,82.98
2022-12-04T00:10:35.292Z,83.01
2022-12-04T00:13:03.396Z,82.88
2022-12-04T00:15:31.670Z,82.64
2022-12-04T00:17:59.790Z,82.38
2022-12-04T00:20:27.916Z,82.53
2022-12-04T00:22:57.396Z,82.76
2022-12-04T00:25:25.501Z,82.93
2022-12-04T00:27:53.792Z,83.44
2022-12-04T00:30:22.022Z,83.17
2022-12-04T00:32:50.118Z,83.08
2022-12-04T00:35:18.339Z,82.93
2022-12-04T00:37:46.488Z,83.27
2022-12-04T00:40:16.205Z,83.28
2022-12-04T00:42:44.349Z,83.11
2022-12-04T00:45:12.481Z,83.25
2022-12-04T00:47:40.597Z,83.67
2022-12-04T00:50:09.284Z,83.79
2022-12-04T00:52:37.600Z,83.49
2022-12-04T00:55:06.041Z,83.45
2022-12-04T00:57:35.609Z,83.47
2022-12-04T01:00:04.893Z,83.17
2022-12-04T01:02:33.031Z,83.55
2022-12-04T01:05:01.574Z,83.83
2022-12-04T01:07:29.789Z,83.84
2022-12-04T01:09:58.064Z,83.27
2022-12-04T01:12:26.296Z,83.66
2022-12-04T01:14:55.816Z,83.55
2022-12-04T01:17:24.556Z,83.59
2022-12-04T01:19:53.340Z,83.17
2022-12-04T01:22:21.758Z,83.74
2022-12-04T01:24:49.935Z,83.64
2022-12-04T01:27:18.087Z,84.01
2022-12-04T01:29:46.533Z,83.42
2022-12-04T01:32:16.086Z,83.82
2022-12-04T01:34:44.232Z,84.24
2022-12-04T01:37:12.351Z,83.81
2022-12-04T01:39:40.439Z,84.05
2022-12-04T01:42:12.277Z,84.55
2022-12-04T01:44:42.964Z,84.47
2022-12-04T01:47:11.373Z,84.27
2022-12-04T01:49:42.219Z,84.49
2022-12-04T01:52:13.440Z,84.41
2022-12-04T01:54:43.397Z,84.52
2022-12-04T01:57:20.258Z,84.37
2022-12-04T01:59:51.145Z,84.08
2022-12-04T02:02:22.170Z,83.79
2022-12-04T02:04:52.237Z,84.13
2022-12-04T02:07:20.410Z,84.62
2022-12-04T02:09:53.906Z,84.21
2022-12-04T02:12:25.324Z,83.33
2022-12-04T02:15:01.525Z,83.25
2022-12-04T02:17:37.544Z,83.88
2022-12-04T02:20:16.623Z,84.21
2022-12-04T02:22:54.643Z,84.09
2022-12-04T02:25:25.669Z,84.43
2022-12-04T02:28:04.609Z,84.87
2022-12-04T02:30:37.574Z,84.55
2022-12-04T02:33:08.380Z,84.66
2022-12-04T02:35:38.427Z,84.52
2022-12-04T02:38:11.302Z,84.73
2022-12-04T02:40:43.912Z,84.77
2022-12-04T02:43:16.118Z,84.60
2022-12-04T02:45:46.985Z,84.37
2022-12-04T02:48:17.392Z,84.78
2022-12-04T02:50:46.404Z,84.60
2022-12-04T02:53:17.546Z,85.30
2022-12-04T02:55:49.307Z,84.92
2022-12-04T02:58:22.440Z,84.95
2022-12-04T03:00:51.214Z,84.74
2022-12-04T03:03:21.349Z,84.70
2022-12-04T03:05:52.862Z,84.94
2022-12-04T03:08:23.196Z,84.91
2022-12-04T03:10:53.744Z,84.86
2022-12-04T03:13:26.298Z,84.85
2022-12-04T03:15:58.081Z,84.61
2022-12-04T03:18:29.048Z,85.28
2022-12-04T03:21:02.706Z,84.91
2022-12-04T03:23:32.125Z,85.54
2022-12-04T03:26:03.743Z,84.81
2022-12-04T03:28:39.279Z,85.23
2022-12-04T03:31:09.282Z,84.60
2022-12-04T03:33:40.030Z,84.86
2022-12-04T03:36:12.525Z,84.97
2022-12-04T03:38:43.185Z,84.52
2022-12-04T03:41:14.983Z,84.57
2022-12-04T03:43:47.922Z,84.53
2022-12-04T03:46:19.733Z,84.90
2022-12-04T03:48:51.471Z,84.62
2022-12-04T03:51:22.737Z,84.83
2022-12-04T03:53:53.809Z,84.51
2022-12-04T03:56:23.669Z,85.04
2022-12-04T03:58:56.175Z,84.60
2022-12-04T04:01:28.441Z,84.91
2022-12-04T04:03:59.484Z,84.54
2022-12-04T04:06:29.738Z,84.09
2022-12-04T04:08:59.472Z,83.88
2022-12-04T04:11:29.811Z,84.66
2022-12-04T04:14:19.262Z,83.51
2022-12-04T04:17:08.008Z,83.93
2022-12-04T04:19:55.490Z,83.78
2022-12-04T04:22:42.337Z,83.95
2022-12-04T04:25:12.260Z,84.24
2022-12-04T04:27:40.896Z,84.06
2022-12-04T04:30:10.942Z,83.44
2022-12-04T04:32:40.625Z,83.46
2022-12-04T04:35:13.949Z,83.67
2022-12-04T04:37:46.893Z,84.29
2022-12-04T04:40:18.843Z,83.71
2022-12-04T04:42:51.423Z,83.63
2022-12-04T04:45:22.981Z,83.80
2022-12-04T04:47:55.411Z,83.34
2022-12-04T04:50:31.252Z,83.75
2022-12-04T04:53:07.056Z,83.70
2022-12-04T04:55:36.037Z,83.74
2022-12-04T04:58:24.655Z,83.66
2022-12-04T05:01:02.279Z,83.10
2022-12-04T05:03:36.455Z,83.60
2022-12-04T05:06:10.516Z,83.49
2022-12-04T05:08:56.582Z,83.17
2022-12-04T05:11:24.862Z,83.00
2022-12-04T05:13:53.009Z,83.19
2022-12-04T05:16:22.565Z,83.10
2022-12-04T05:19:04.698Z,83.13
2022-12-04T05:21:34.022Z,83.41
2022-12-04T05:24:02.206Z,82.19
2022-12-04T05:26:30.277Z,82.72
2022-12-04T05:28:58.352Z,83.03
2022-12-04T05:31:28.001Z,82.65
2022-12-04T05:33:57.129Z,82.78
2022-12-04T05:36:25.233Z,82.84
2022-12-04T05:38:53.551Z,82.68
2022-12-04T05:41:21.679Z,82.81
2022-12-04T05:43:49.850Z,83.02
2022-12-04T05:46:18.150Z,82.43
2022-12-04T05:48:47.602Z,82.55
2022-12-04T05:51:15.740Z,82.85
2022-12-04T05:53:43.929Z,82.99
2022-12-04T05:56:12.107Z,83.48
2022-12-04T05:58:40.358Z,83.33
2022-12-04T06:01:09.794Z,84.14
2022-12-04T06:03:39.536Z,83.55
2022-12-04T06:06:19.498Z,83.71
2022-12-04T06:08:50.704Z,83.90
2022-12-04T06:11:20.101Z,83.80
2022-12-04T06:13:48.759Z,83.52
2022-12-04T06:16:18.319Z,83.44
2022-12-04T06:18:49.778Z,83.83
2022-12-04T06:21:19.884Z,83.65
2022-12-04T06:23:49.070Z,83.94
2022-12-04T06:26:17.406Z,83.62
2022-12-04T06:28:45.761Z,84.05
2022-12-04T06:31:15.759Z,83.54
2022-12-04T06:33:44.222Z,83.90
2022-12-04T06:36:13.051Z,83.54
2022-12-04T06:38:43.071Z,83.34
2022-12-04T06:41:12.061Z,83.88
2022-12-04T06:43:40.586Z,84.24
2022-12-04T06:46:09.612Z,83.65
2022-12-04T06:48:38.149Z,83.52
2022-12-04T06:51:07.570Z,83.71
2022-12-04T06:53:36.419Z,83.33
2022-12-04T06:56:07.513Z,83.29
2022-12-04T06:58:36.426Z,83.00
2022-12-04T07:01:07.940Z,83.33
2022-12-04T07:03:36.355Z,83.47
2022-12-04T07:06:11.460Z,83.56
2022-12-04T07:08:39.761Z,83.31
2022-12-04T07:11:09.321Z,83.51
2022-12-04T07:13:37.559Z,82.80
2022-12-04T07:16:07.055Z,83.02
2022-12-04T07:18:35.994Z,83.40
2022-12-04T07:21:05.956Z,82.62
2022-12-04T07:23:34.056Z,83.19
2022-12-04T07:26:04.966Z,82.78
2022-12-04T07:28:34.626Z,82.84
2022-12-04T07:31:04.570Z,82.83
2022-12-04T07:33:32.691Z,83.15
2022-12-04T07:36:01.629Z,83.31
2022-12-04T07:38:30.231Z,82.80
2022-12-04T07:40:58.915Z,82.99
2022-12-04T07:43:27.480Z,82.90
2022-12-04T07:45:57.221Z,83.14
2022-12-04T07:48:30.237Z,82.31
2022-12-04T07:51:05.470Z,82.53
2022-12-04T07:53:34.572Z,83.02
2022-12-04T07:56:02.839Z,83.26
2022-12-04T07:58:30.991Z,83.15
2022-12-04T08:01:07.524Z,82.87
2022-12-04T08:03:35.868Z,83.05
2022-12-04T08:06:04.565Z,83.16
2022-12-04T08:08:33.169Z,83.06
2022-12-04T08:11:01.745Z,83.39
2022-12-04T08:13:30.071Z,83.03
2022-12-04T08:16:01.706Z,83.34
2022-12-04T08:18:31.222Z,82.97
2022-12-04T08:21:04.098Z,83.11
2022-12-04T08:23:32.558Z,83.23
2022-12-04T08:26:01.139Z,82.80
2022-12-04T08:28:29.999Z,82.52
2022-12-04T08:31:03.476Z,82.60
2022-12-04T08:33:33.652Z,82.96
2022-12-04T08:36:02.093Z,83.27
2022-12-04T08:38:30.314Z,83.07
2022-12-04T08:41:00.620Z,82.74
2022-12-04T08:43:28.721Z,82.40
2022-12-04T08:45:57.800Z,82.15
2022-12-04T08:48:26.263Z,82.24
2022-12-04T08:50:55.675Z,82.95
2022-12-04T08:53:24.289Z,82.25
2022-12-04T08:55:52.427Z,82.60
2022-12-04T08:58:20.760Z,82.34
2022-12-04T09:00:49.019Z,82.90
2022-12-04T09:03:18.298Z,82.63
2022-12-04T09:05:46.656Z,82.22
2022-12-04T09:08:16.678Z,82.35
2022-12-04T09:10:45.141Z,82.31
2022-12-04T09:13:13.176Z,82.43
2022-12-04T09:15:41.397Z,82.83
2022-12-04T09:18:09.905Z,82.32
2022-12-04T09:20:38.369Z,82.25
2022-12-04T09:23:06.781Z,82.25
2022-12-04T09:25:37.512Z,82.91
2022-12-04T09:28:05.937Z,82.74
2022-12-04T09:30:34.002Z,82.69
2022-12-04T09:33:02.037Z,82.27
2022-12-04T09:35:30.720Z,82.66
2022-12-04T09:37:59.179Z,82.66
2022-12-04T09:40:36.842Z,82.02
2022-12-04T09:43:27.348Z,82.76
2022-12-04T09:45:57.110Z,82.11
2022-12-04T09:48:27.299Z,82.51
2022-12-04T09:50:55.928Z,82.43
2022-12-04T09:53:27.775Z,82.53
2022-12-04T09:55:59.727Z,82.16
2022-12-04T09:58:33.619Z,82.08
2022-12-04T10:01:04.035Z,82.53
2022-12-04T10:03:32.600Z,81.75
2022-12-04T10:06:04.171Z,82.33
2022-12-04T10:08:35.165Z,82.46
2022-12-04T10:11:07.314Z,82.43
2022-12-04T10:13:45.949Z,82.48
2022-12-04T10:16:18.941Z,82.78
2022-12-04T10:18:54.510Z,82.60
2022-12-04T10:21:31.135Z,81.89
2022-12-04T10:24:16.209Z,81.74
2022-12-04T10:26:45.801Z,82.14
2022-12-04T10:29:17.779Z,81.86
2022-12-04T10:31:47.493Z,82.22
2022-12-04T10:34:17.671Z,82.20
2022-12-04T10:36:50.059Z,82.36
2022-12-04T10:39:21.865Z,82.20
2022-12-04T10:41:53.338Z,82.38
2022-12-04T10:44:23.501Z,82.19
2022-12-04T10:46:54.258Z,82.36
2022-12-04T10:49:25.479Z,82.32
2022-12-04T10:51:54.614Z,82.98
2022-12-04T10:54:26.353Z,82.97
2022-12-04T10:56:55.372Z,82.03
2022-12-04T10:59:25.549Z,82.42
2022-12-04T11:02:04.759Z,81.88
2022-12-04T11:04:35.953Z,82.81
2022-12-04T11:07:04.938Z,82.96
2022-12-04T11:09:33.368Z,82.62
2022-12-04T11:12:09.589Z,82.48
2022-12-04T11:14:42.768Z,81.69
2022-12-04T11:17:16.287Z,82.40
2022-12-04T11:19:44.465Z,82.52
2022-12-04T11:22:14.468Z,82.10
2022-12-04T11:24:43.283Z,81.92
2022-12-04T11:27:19.973Z,81.31
2022-12-04T11:29:50.103Z,81.48
2022-12-04T11:32:21.091Z,81.77
2022-12-04T11:34:51.736Z,80.85
2022-12-04T11:37:21.414Z,81.61
2022-12-04T11:39:50.101Z,81.61
2022-12-04T11:42:19.448Z,81.77
2022-12-04T11:44:52.605Z,81.30
2022-12-04T11:47:23.079Z,81.28
2022-12-04T11:50:11.315Z,81.21
2022-12-04T11:52:45.874Z,80.90
2022-12-04T11:55:16.914Z,81.69
2022-12-04T11:57:48.580Z,81.34
2022-12-04T12:00:20.127Z,81.27
2022-12-04T12:02:57.554Z,81.25
2022-12-04T12:05:35.787Z,82.67
2022-12-04T12:08:09.051Z,82.59
2022-12-04T12:13:36.638Z,81.09
2022-12-04T12:16:11.836Z,81.80
2022-12-04T12:18:56.604Z,81.72
2022-12-04T12:21:39.017Z,82.02
2022-12-04T12:24:16.523Z,81.22
2022-12-04T12:26:47.300Z,81.85
2022-12-04T12:29:21.554Z,82.29
2022-12-04T12:32:05.282Z,81.71
2022-12-04T12:34:37.259Z,81.42
2022-12-04T12:37:09.044Z,81.48
2022-12-04T12:39:40.197Z,81.79
2022-12-04T12:42:14.872Z,82.37
2022-12-04T12:44:46.417Z,82.37
2022-12-04T12:47:18.876Z,82.73
2022-12-04T12:49:49.237Z,82.70
2022-12-04T12:52:21.060Z,81.92
2022-12-04T12:54:52.923Z,82.06
2022-12-04T12:57:25.518Z,82.17
2022-12-04T12:59:56.541Z,82.10
2022-12-04T13:02:29.419Z,81.66
2022-12-04T13:04:59.809Z,82.00
2022-12-04T13:07:30.187Z,82.14
2022-12-04T13:10:01.738Z,82.37
2022-12-04T13:12:30.562Z,81.85
2022-12-04T13:14:58.824Z,81.34
2022-12-04T13:17:32.346Z,81.88
2022-12-04T13:20:09.534Z,81.69
2022-12-04T13:22:45.400Z,81.41
2022-12-04T13:25:23.151Z,81.61
2022-12-04T13:27:56.846Z,81.25
2022-12-04T13:30:28.065Z,81.43
2022-12-04T13:33:05.505Z,81.72
2022-12-04T13:35:45.989Z,81.74
2022-12-04T13:38:19.558Z,81.61
2022-12-04T13:40:52.699Z,80.75
2022-12-04T13:43:26.858Z,81.38
2022-12-04T13:45:56.661Z,81.41
2022-12-04T13:48:33.937Z,81.39
2022-12-04T13:51:03.205Z,81.77
2022-12-04T13:53:32.216Z,81.57
2022-12-04T13:56:06.041Z,81.82
2022-12-04T13:58:37.460Z,81.64
2022-12-04T14:01:11.288Z,81.40
2022-12-04T14:03:47.121Z,81.59
2022-12-04T14:06:23.271Z,81.72
2022-12-04T14:08:56.170Z,81.22
2022-12-04T14:11:24.873Z,81.21
2022-12-04T14:13:54.456Z,81.26
2022-12-04T14:16:24.020Z,81.98
2022-12-04T14:18:54.528Z,81.34
2022-12-04T14:21:23.258Z,81.56
2022-12-04T14:23:52.382Z,81.63
2022-12-04T14:26:37.370Z,81.77
2022-12-04T14:29:29.821Z,81.05
2022-12-04T14:32:00.134Z,81.82
2022-12-04T14:34:31.723Z,81.24
2022-12-04T14:37:01.776Z,80.90
2022-12-04T14:39:31.004Z,80.58
2022-12-04T14:42:06.080Z,81.29
2022-12-04T14:44:34.376Z,81.24
2022-12-04T14:47:12.026Z,81.73
2022-12-04T14:49:51.978Z,81.60
2022-12-04T14:52:24.965Z,82.31
2022-12-04T14:55:00.250Z,82.92
2022-12-04T14:57:36.143Z,82.74
2022-12-04T15:00:05.601Z,82.21
2022-12-04T15:02:35.673Z,81.97
2022-12-04T15:05:09.477Z,82.69
2022-12-04T15:07:38.255Z,82.78
2022-12-04T15:10:35.697Z,82.82
2022-12-04T15:13:04.077Z,82.91
2022-12-04T15:15:32.165Z,82.72
2022-12-04T15:18:01.617Z,82.70
2022-12-04T15:20:38.650Z,82.43
2022-12-04T15:23:07.516Z,82.98
2022-12-04T15:25:38.074Z,82.93
2022-12-04T15:28:11.958Z,83.17
2022-12-04T15:30:42.270Z,82.96
2022-12-04T15:33:17.782Z,83.34
2022-12-04T15:35:52.527Z,82.83
2022-12-04T15:38:21.202Z,83.36
2022-12-04T15:40:53.390Z,83.03
2022-12-04T15:43:28.881Z,83.25
2022-12-04T15:45:57.548Z,83.40
2022-12-04T15:48:26.614Z,83.03
2022-12-04T15:51:00.510Z,83.75
2022-12-04T15:53:30.969Z,83.64
2022-12-04T15:56:00.829Z,82.91
2022-12-04T15:58:30.395Z,82.57
2022-12-04T16:00:59.884Z,82.83
2022-12-04T16:03:30.753Z,83.14
2022-12-04T16:06:15.912Z,83.29
2022-12-04T16:08:45.301Z,83.77
2022-12-04T16:11:30.044Z,83.82
2022-12-04T16:14:06.285Z,83.05
2022-12-04T16:16:35.002Z,83.70
2022-12-04T16:19:06.517Z,83.68
2022-12-04T16:21:36.480Z,83.25
2022-12-04T16:24:05.176Z,83.50
2022-12-04T16:26:33.479Z,83.24
2022-12-04T16:29:01.552Z,83.98
2022-12-04T16:31:30.249Z,83.60
2022-12-04T16:33:58.578Z,83.26
2022-12-04T16:36:26.687Z,84.02
2022-12-04T16:38:56.129Z,84.10
2022-12-04T16:41:24.697Z,84.40
2022-12-04T16:43:54.209Z,83.76
2022-12-04T16:46:24.321Z,83.37
2022-12-04T16:48:52.787Z,83.87
2022-12-04T16:51:22.233Z,83.58
2022-12-04T16:53:50.978Z,84.21
2022-12-04T16:56:20.997Z,83.55
2022-12-04T16:58:49.125Z,83.81
2022-12-04T17:01:21.417Z,84.57
2022-12-04T17:03:50.548Z,84.00
2022-12-04T17:06:18.877Z,84.32
2022-12-04T17:08:47.093Z,84.41
2022-12-04T17:11:16.027Z,85.12
2022-12-04T17:13:45.471Z,85.43
2022-12-04T17:16:15.356Z,85.56
2022-12-04T17:18:43.569Z,86.37
2022-12-04T17:21:13.185Z,86.28
2022-12-04T17:23:41.425Z,87.08
2022-12-04T17:26:10.984Z,87.44
2022-12-04T17:28:39.631Z,86.92
2022-12-04T17:31:14.058Z,87.03
2022-12-04T17:33:43.548Z,87.33
2022-12-04T17:36:12.435Z,86.79
2022-12-04T17:38:43.764Z,87.90
2022-12-04T17:41:13.593Z,87.79
2022-12-04T17:43:42.240Z,87.90
2022-12-04T17:46:11.154Z,87.33
2022-12-04T17:48:41.042Z,87.84
2022-12-04T17:51:10.753Z,87.56
2022-12-04T17:53:39.514Z,88.26
2022-12-04T17:56:09.258Z,87.89
2022-12-04T17:58:37.786Z,87.36
2022-12-04T18:01:06.873Z,87.96
2022-12-04T18:03:35.659Z,87.67
2022-12-04T18:06:12.944Z,88.30
2022-12-04T18:08:50.070Z,88.19
2022-12-04T18:11:22.383Z,88.49
2022-12-04T18:13:54.253Z,87.78
2022-12-04T18:16:25.684Z,87.98
2022-12-04T18:18:53.925Z,88.16
2022-12-04T18:21:23.619Z,88.67
2022-12-04T18:23:53.849Z,88.95
2022-12-04T18:26:22.787Z,88.58
2022-12-04T18:28:51.117Z,88.78
2022-12-04T18:31:20.273Z,89.04
2022-12-04T18:33:48.829Z,89.39
2022-12-04T18:36:17.689Z,89.38
2022-12-04T18:38:47.776Z,89.15
2022-12-04T18:41:16.031Z,89.56
2022-12-04T18:43:45.318Z,90.00
2022-12-04T18:46:14.773Z,89.83
2022-12-04T18:48:43.508Z,90.04
2022-12-04T18:51:15.336Z,90.10
2022-12-04T18:53:43.661Z,90.44
2022-12-04T18:56:24.940Z,90.14
2022-12-04T18:58:57.550Z,90.41
2022-12-04T19:01:28.832Z,90.00
2022-12-04T19:04:10.268Z,89.70
2022-12-04T19:06:40.102Z,90.68
2022-12-04T19:09:09.331Z,90.46
2022-12-04T19:11:39.221Z,90.09
2022-12-04T19:14:53.575Z,89.95
2022-12-04T19:17:35.549Z,90.32
2022-12-04T19:20:08.215Z,90.40
2022-12-04T19:22:38.433Z,90.64
2022-12-04T19:25:13.897Z,90.93
2022-12-04T19:27:56.394Z,90.56
2022-12-04T19:30:26.433Z,90.14
2022-12-04T19:32:54.521Z,90.61
2022-12-04T19:35:22.642Z,90.07
2022-12-04T19:37:52.832Z,90.44
2022-12-04T19:40:21.400Z,90.09
2022-12-04T19:42:51.078Z,89.75
2022-12-04T19:45:19.386Z,90.12
2022-12-04T19:47:49.575Z,90.11
2022-12-04T19:50:17.773Z,89.63
2022-12-04T19:52:45.897Z,90.51
2022-12-04T19:55:14.097Z,89.65
2022-12-04T19:57:42.364Z,90.27
2022-12-04T20:00:12.292Z,89.49
2022-12-04T20:02:40.506Z,90.15
2022-12-04T20:05:08.975Z,89.36
2022-12-04T20:07:37.112Z,90.17
2022-12-04T20:10:06.034Z,90.24
2022-12-04T20:12:34.125Z,89.76
2022-12-04T20:15:02.238Z,89.80
2022-12-04T20:17:32.136Z,89.71
2022-12-04T20:20:00.317Z,89.30
2022-12-04T20:22:28.603Z,89.07
2022-12-04T20:24:56.706Z,89.27
2022-12-04T20:27:24.787Z,88.76
2022-12-04T20:29:53.422Z,88.98
2022-12-04T20:32:21.716Z,88.95
2022-12-04T20:34:51.401Z,88.86
2022-12-04T20:37:19.501Z,89.35
2022-12-04T20:39:51.587Z,88.88
2022-12-04T20:42:19.978Z,88.98
2022-12-04T20:44:48.298Z,89.30
2022-12-04T20:47:17.153Z,88.43
2022-12-04T20:49:47.638Z,88.86
2022-12-04T20:52:19.372Z,89.04
2022-12-04T20:54:47.702Z,88.42
2022-12-04T20:57:15.799Z,89.08
2022-12-04T20:59:43.902Z,88.87
2022-12-04T21:02:12.542Z,89.46
2022-12-04T21:04:41.172Z,89.14
2022-12-04T21:07:09.675Z,89.53
2022-12-04T21:09:46.705Z,89.49
2022-12-04T21:12:39.888Z,89.64
2022-12-04T21:15:38.664Z,89.85
2022-12-04T21:18:09.762Z,89.49
2022-12-04T21:20:46.786Z,88.62
2022-12-04T21:23:17.214Z,89.17
2022-12-04T21:25:46.992Z,88.62
2022-12-04T21:28:15.137Z,88.82
2022-12-04T21:30:44.066Z,88.75
2022-12-04T21:33:16.368Z,88.94
2022-12-04T21:35:45.162Z,89.45
2022-12-04T21:38:17.144Z,89.59
2022-12-04T21:40:50.476Z,89.61
2022-12-04T21:43:18.864Z,89.46
2022-12-04T21:45:56.542Z,89.02
2022-12-04T21:48:25.073Z,89.09
2022-12-04T21:50:53.347Z,89.10
2022-12-04T21:53:22.009Z,88.69
2022-12-04T21:55:52.324Z,88.76
2022-12-04T21:58:21.211Z,87.97
2022-12-04T22:00:49.641Z,88.37
2022-12-04T22:03:19.049Z,88.00
2022-12-04T22:05:47.930Z,88.78
2022-12-04T22:08:16.117Z,88.20
2022-12-04T22:10:45.598Z,89.06
2022-12-04T22:13:17.662Z,88.55
2022-12-04T22:15:48.728Z,88.50
2022-12-04T22:18:17.133Z,88.55
2022-12-04T22:20:45.395Z,88.35
2022-12-04T22:23:13.554Z,88.63
2022-12-04T22:25:41.781Z,88.65
2022-12-04T22:28:10.108Z,88.55
2022-12-04T22:30:39.617Z,87.84
2022-12-04T22:33:07.709Z,88.29
2022-12-04T22:35:36.084Z,87.74
2022-12-04T22:38:04.275Z,88.43
2022-12-04T22:40:32.603Z,88.35
2022-12-04T22:43:00.797Z,88.40
2022-12-04T22:45:28.902Z,88.62
2022-12-04T22:47:58.396Z,89.02
2022-12-04T22:50:26.542Z,88.19
2022-12-04T22:52:54.799Z,89.01
2022-12-04T22:55:22.881Z,88.60
2022-12-04T22:57:51.405Z,88.90
2022-12-04T23:00:19.841Z,88.61
2022-12-04T23:03:01.060Z,88.30
2022-12-04T23:05:30.084Z,88.75
2022-12-04T23:07:58.654Z,88.63
2022-12-04T23:10:27.141Z,88.45
2022-12-04T23:12:55.495Z,88.51
2022-12-04T23:15:23.768Z,88.57
2022-12-04T23:17:51.911Z,88.76
2022-12-04T23:20:21.400Z,89.04
2022-12-04T23:22:54.582Z,89.25
2022-12-04T23:25:22.933Z,89.12
2022-12-04T23:27:51.620Z,88.47
2022-12-04T23:30:26.096Z,88.69
2022-12-04T23:32:55.802Z,88.65
2022-12-04T23:35:25.364Z,88.76
2022-12-04T23:37:53.731Z,88.61
2022-12-04T23:40:21.990Z,88.49
2022-12-04T23:42:57.140Z,88.89
2022-12-04T23:45:51.423Z,89.36
2022-12-04T23:48:31.209Z,89.13
2022-12-04T23:51:31.955Z,88.86
2022-12-04T23:54:34.957Z,88.57
